sensor_id;sensor_type;location;lat;lon;timestamp;P1;durP1;ratioP1;P2;durP2;ratioP2
6392;SDS011;3229;42.674;23.282;2022-07-05T00:01:24;5.07;;;3.92;;
6392;SDS011;3229;42.674;23.282;2022-07-05T00:04:02;4.93;;;3.70;;
6392;SDS011;3229;42.674;23.282;2022-07-05T00:06:29;4.70;;;4.30;;
6392;SDS011;3229;42.674;23.282;2022-07-05T00:08:55;5.22;;;3.85;;
6392;SDS011;3229;42.674;23.282;2022-07-05T00:11:22;4.32;;;3.92;;
6392;SDS011;3229;42.674;23.282;2022-07-05T00:13:49;4.82;;;3.65;;
6392;SDS011;3229;42.674;23.282;2022-07-05T00:16:16;7.45;;;3.95;;
6392;SDS011;3229;42.674;23.282;2022-07-05T00:18:44;3.90;;;3.50;;
6392;SDS011;3229;42.674;23.282;2022-07-05T00:21:11;4.78;;;3.75;;
6392;SDS011;3229;42.674;23.282;2022-07-05T00:23:37;5.00;;;3.75;;
6392;SDS011;3229;42.674;23.282;2022-07-05T00:26:04;5.20;;;3.95;;
6392;SDS011;3229;42.674;23.282;2022-07-05T00:28:31;4.13;;;3.72;;
6392;SDS011;3229;42.674;23.282;2022-07-05T00:30:58;4.00;;;3.50;;
6392;SDS011;3229;42.674;23.282;2022-07-05T00:33:24;6.25;;;3.80;;
6392;SDS011;3229;42.674;23.282;2022-07-05T00:35:52;3.97;;;3.40;;
6392;SDS011;3229;42.674;23.282;2022-07-05T00:38:19;8.10;;;4.55;;
6392;SDS011;3229;42.674;23.282;2022-07-05T00:40:46;5.35;;;3.40;;
6392;SDS011;3229;42.674;23.282;2022-07-05T00:43:13;4.10;;;3.70;;
6392;SDS011;3229;42.674;23.282;2022-07-05T00:45:39;4.15;;;3.75;;
6392;SDS011;3229;42.674;23.282;2022-07-05T00:48:06;3.70;;;3.35;;
6392;SDS011;3229;42.674;23.282;2022-07-05T00:50:33;4.40;;;3.78;;
6392;SDS011;3229;42.674;23.282;2022-07-05T00:53:01;4.55;;;3.45;;
6392;SDS011;3229;42.674;23.282;2022-07-05T00:55:28;3.80;;;3.50;;
6392;SDS011;3229;42.674;23.282;2022-07-05T00:57:55;3.55;;;3.25;;
6392;SDS011;3229;42.674;23.282;2022-07-05T01:00:22;6.40;;;3.67;;
6392;SDS011;3229;42.674;23.282;2022-07-05T01:02:49;4.30;;;3.20;;
6392;SDS011;3229;42.674;23.282;2022-07-05T01:05:16;3.92;;;3.58;;
6392;SDS011;3229;42.674;23.282;2022-07-05T01:07:43;4.10;;;3.67;;
6392;SDS011;3229;42.674;23.282;2022-07-05T01:10:11;8.07;;;4.03;;
6392;SDS011;3229;42.674;23.282;2022-07-05T01:12:38;3.50;;;3.30;;
6392;SDS011;3229;42.674;23.282;2022-07-05T01:15:06;4.82;;;3.67;;
6392;SDS011;3229;42.674;23.282;2022-07-05T01:17:34;4.25;;;3.53;;
6392;SDS011;3229;42.674;23.282;2022-07-05T01:20:03;6.00;;;3.55;;
6392;SDS011;3229;42.674;23.282;2022-07-05T01:22:46;4.68;;;4.20;;
6392;SDS011;3229;42.674;23.282;2022-07-05T01:25:18;3.90;;;3.40;;
6392;SDS011;3229;42.674;23.282;2022-07-05T01:27:46;6.90;;;3.97;;
6392;SDS011;3229;42.674;23.282;2022-07-05T01:30:14;5.05;;;3.50;;
6392;SDS011;3229;42.674;23.282;2022-07-05T01:32:42;4.20;;;3.85;;
6392;SDS011;3229;42.674;23.282;2022-07-05T01:35:10;4.38;;;3.63;;
6392;SDS011;3229;42.674;23.282;2022-07-05T01:37:37;7.20;;;3.63;;
6392;SDS011;3229;42.674;23.282;2022-07-05T01:40:06;6.43;;;3.90;;
6392;SDS011;3229;42.674;23.282;2022-07-05T01:42:34;3.67;;;3.38;;
6392;SDS011;3229;42.674;23.282;2022-07-05T01:45:00;4.00;;;3.65;;
6392;SDS011;3229;42.674;23.282;2022-07-05T01:47:28;4.35;;;3.70;;
6392;SDS011;3229;42.674;23.282;2022-07-05T01:49:54;4.40;;;3.58;;
6392;SDS011;3229;42.674;23.282;2022-07-05T01:52:24;8.93;;;3.88;;
6392;SDS011;3229;42.674;23.282;2022-07-05T01:54:53;5.00;;;3.70;;
6392;SDS011;3229;42.674;23.282;2022-07-05T01:57:19;4.05;;;3.65;;
6392;SDS011;3229;42.674;23.282;2022-07-05T01:59:46;5.55;;;3.40;;
6392;SDS011;3229;42.674;23.282;2022-07-05T02:02:14;4.35;;;3.95;;
6392;SDS011;3229;42.674;23.282;2022-07-05T02:04:41;8.98;;;3.65;;
6392;SDS011;3229;42.674;23.282;2022-07-05T02:07:08;3.83;;;3.40;;
6392;SDS011;3229;42.674;23.282;2022-07-05T02:09:35;4.25;;;3.50;;
6392;SDS011;3229;42.674;23.282;2022-07-05T02:12:04;3.88;;;3.58;;
6392;SDS011;3229;42.674;23.282;2022-07-05T02:14:31;8.18;;;4.00;;
6392;SDS011;3229;42.674;23.282;2022-07-05T02:16:58;3.90;;;3.58;;
6392;SDS011;3229;42.674;23.282;2022-07-05T02:19:33;5.80;;;3.90;;
6392;SDS011;3229;42.674;23.282;2022-07-05T02:22:04;4.35;;;4.03;;
6392;SDS011;3229;42.674;23.282;2022-07-05T02:24:31;4.40;;;3.95;;
6392;SDS011;3229;42.674;23.282;2022-07-05T02:26:58;3.90;;;3.60;;
6392;SDS011;3229;42.674;23.282;2022-07-05T02:29:26;3.97;;;3.47;;
6392;SDS011;3229;42.674;23.282;2022-07-05T02:31:53;4.53;;;4.10;;
6392;SDS011;3229;42.674;23.282;2022-07-05T02:34:20;4.32;;;3.92;;
6392;SDS011;3229;42.674;23.282;2022-07-05T02:36:47;5.28;;;4.22;;
6392;SDS011;3229;42.674;23.282;2022-07-05T02:39:13;4.85;;;4.20;;
6392;SDS011;3229;42.674;23.282;2022-07-05T02:41:40;7.53;;;3.97;;
6392;SDS011;3229;42.674;23.282;2022-07-05T02:44:07;4.80;;;4.40;;
6392;SDS011;3229;42.674;23.282;2022-07-05T02:46:35;5.07;;;3.92;;
6392;SDS011;3229;42.674;23.282;2022-07-05T02:49:02;4.18;;;3.78;;
6392;SDS011;3229;42.674;23.282;2022-07-05T02:51:29;8.80;;;3.95;;
6392;SDS011;3229;42.674;23.282;2022-07-05T02:53:56;6.28;;;4.10;;
6392;SDS011;3229;42.674;23.282;2022-07-05T02:56:23;6.05;;;3.80;;
6392;SDS011;3229;42.674;23.282;2022-07-05T02:58:49;5.47;;;4.10;;
6392;SDS011;3229;42.674;23.282;2022-07-05T03:01:16;4.35;;;3.53;;
6392;SDS011;3229;42.674;23.282;2022-07-05T03:03:44;4.53;;;4.13;;
6392;SDS011;3229;42.674;23.282;2022-07-05T03:06:11;6.43;;;3.97;;
6392;SDS011;3229;42.674;23.282;2022-07-05T03:08:40;4.40;;;3.95;;
6392;SDS011;3229;42.674;23.282;2022-07-05T03:11:07;4.03;;;3.63;;
6392;SDS011;3229;42.674;23.282;2022-07-05T03:13:34;7.07;;;3.90;;
6392;SDS011;3229;42.674;23.282;2022-07-05T03:16:00;4.50;;;4.10;;
6392;SDS011;3229;42.674;23.282;2022-07-05T03:18:27;4.07;;;3.72;;
6392;SDS011;3229;42.674;23.282;2022-07-05T03:20:55;4.65;;;4.18;;
6392;SDS011;3229;42.674;23.282;2022-07-05T03:23:22;4.20;;;3.90;;
6392;SDS011;3229;42.674;23.282;2022-07-05T03:25:49;6.55;;;4.20;;
6392;SDS011;3229;42.674;23.282;2022-07-05T03:28:15;5.32;;;3.97;;
6392;SDS011;3229;42.674;23.282;2022-07-05T03:30:43;5.70;;;3.95;;
6392;SDS011;3229;42.674;23.282;2022-07-05T03:33:10;4.07;;;3.67;;
6392;SDS011;3229;42.674;23.282;2022-07-05T03:35:36;8.70;;;3.78;;
6392;SDS011;3229;42.674;23.282;2022-07-05T03:38:05;5.50;;;3.92;;
6392;SDS011;3229;42.674;23.282;2022-07-05T03:40:31;10.63;;;4.90;;
6392;SDS011;3229;42.674;23.282;2022-07-05T03:42:58;9.23;;;4.13;;
6392;SDS011;3229;42.674;23.282;2022-07-05T03:45:25;5.05;;;3.83;;
6392;SDS011;3229;42.674;23.282;2022-07-05T03:47:52;4.45;;;4.05;;
6392;SDS011;3229;42.674;23.282;2022-07-05T03:50:19;5.03;;;4.50;;
6392;SDS011;3229;42.674;23.282;2022-07-05T03:52:45;9.20;;;4.78;;
6392;SDS011;3229;42.674;23.282;2022-07-05T03:55:13;6.00;;;4.30;;
6392;SDS011;3229;42.674;23.282;2022-07-05T03:57:40;7.97;;;4.55;;
6392;SDS011;3229;42.674;23.282;2022-07-05T04:00:07;4.68;;;4.20;;
6392;SDS011;3229;42.674;23.282;2022-07-05T04:02:35;7.60;;;4.57;;
6392;SDS011;3229;42.674;23.282;2022-07-05T04:05:02;4.63;;;3.90;;
6392;SDS011;3229;42.674;23.282;2022-07-05T04:07:29;5.43;;;3.83;;
6392;SDS011;3229;42.674;23.282;2022-07-05T04:09:56;6.93;;;4.75;;
6392;SDS011;3229;42.674;23.282;2022-07-05T04:12:24;5.53;;;4.43;;
6392;SDS011;3229;42.674;23.282;2022-07-05T04:14:51;9.60;;;3.95;;
6392;SDS011;3229;42.674;23.282;2022-07-05T04:17:18;4.68;;;4.28;;
6392;SDS011;3229;42.674;23.282;2022-07-05T04:19:45;6.00;;;4.00;;
6392;SDS011;3229;42.674;23.282;2022-07-05T04:22:11;6.00;;;4.40;;
6392;SDS011;3229;42.674;23.282;2022-07-05T04:24:38;4.88;;;4.38;;
6392;SDS011;3229;42.674;23.282;2022-07-05T04:27:19;8.20;;;3.88;;
6392;SDS011;3229;42.674;23.282;2022-07-05T04:29:47;8.45;;;3.72;;
6392;SDS011;3229;42.674;23.282;2022-07-05T04:32:14;5.53;;;4.38;;
6392;SDS011;3229;42.674;23.282;2022-07-05T04:34:40;7.00;;;4.03;;
6392;SDS011;3229;42.674;23.282;2022-07-05T04:37:07;5.00;;;3.95;;
6392;SDS011;3229;42.674;23.282;2022-07-05T04:39:34;4.85;;;3.55;;
6392;SDS011;3229;42.674;23.282;2022-07-05T04:42:01;8.27;;;3.85;;
6392;SDS011;3229;42.674;23.282;2022-07-05T04:44:28;6.43;;;4.10;;
6392;SDS011;3229;42.674;23.282;2022-07-05T04:46:56;11.57;;;3.85;;
6392;SDS011;3229;42.674;23.282;2022-07-05T04:49:23;5.60;;;3.25;;
6392;SDS011;3229;42.674;23.282;2022-07-05T04:51:49;8.90;;;3.40;;
6392;SDS011;3229;42.674;23.282;2022-07-05T04:54:16;7.82;;;3.20;;
6392;SDS011;3229;42.674;23.282;2022-07-05T04:56:44;7.10;;;3.50;;
6392;SDS011;3229;42.674;23.282;2022-07-05T04:59:11;4.68;;;4.25;;
6392;SDS011;3229;42.674;23.282;2022-07-05T05:01:37;5.00;;;3.40;;
6392;SDS011;3229;42.674;23.282;2022-07-05T05:04:06;5.93;;;3.50;;
6392;SDS011;3229;42.674;23.282;2022-07-05T05:06:33;4.38;;;3.38;;
6392;SDS011;3229;42.674;23.282;2022-07-05T05:08:59;3.78;;;3.47;;
6392;SDS011;3229;42.674;23.282;2022-07-05T05:11:26;4.35;;;3.55;;
6392;SDS011;3229;42.674;23.282;2022-07-05T05:13:53;5.30;;;3.47;;
6392;SDS011;3229;42.674;23.282;2022-07-05T05:16:20;3.80;;;3.50;;
6392;SDS011;3229;42.674;23.282;2022-07-05T05:18:46;4.47;;;3.80;;
6392;SDS011;3229;42.674;23.282;2022-07-05T05:21:15;6.18;;;3.72;;
6392;SDS011;3229;42.674;23.282;2022-07-05T05:23:41;4.60;;;2.90;;
6392;SDS011;3229;42.674;23.282;2022-07-05T05:26:08;8.07;;;3.63;;
6392;SDS011;3229;42.674;23.282;2022-07-05T05:28:35;5.43;;;3.17;;
6392;SDS011;3229;42.674;23.282;2022-07-05T05:31:02;3.70;;;3.40;;
6392;SDS011;3229;42.674;23.282;2022-07-05T05:33:29;3.42;;;3.10;;
6392;SDS011;3229;42.674;23.282;2022-07-05T05:35:56;5.18;;;3.08;;
6392;SDS011;3229;42.674;23.282;2022-07-05T05:38:24;6.57;;;2.63;;
6392;SDS011;3229;42.674;23.282;2022-07-05T05:40:51;3.38;;;3.08;;
6392;SDS011;3229;42.674;23.282;2022-07-05T05:43:18;3.40;;;2.67;;
6392;SDS011;3229;42.674;23.282;2022-07-05T05:45:45;7.38;;;3.22;;
6392;SDS011;3229;42.674;23.282;2022-07-05T05:48:12;4.68;;;3.08;;
6392;SDS011;3229;42.674;23.282;2022-07-05T05:50:38;9.10;;;3.03;;
6392;SDS011;3229;42.674;23.282;2022-07-05T05:53:05;3.45;;;2.95;;
6392;SDS011;3229;42.674;23.282;2022-07-05T05:55:34;3.10;;;2.90;;
6392;SDS011;3229;42.674;23.282;2022-07-05T05:58:11;9.45;;;3.08;;
6392;SDS011;3229;42.674;23.282;2022-07-05T06:00:38;4.20;;;3.17;;
6392;SDS011;3229;42.674;23.282;2022-07-05T06:03:05;4.32;;;3.08;;
6392;SDS011;3229;42.674;23.282;2022-07-05T06:05:32;6.43;;;2.92;;
6392;SDS011;3229;42.674;23.282;2022-07-05T06:07:59;3.60;;;2.97;;
6392;SDS011;3229;42.674;23.282;2022-07-05T06:10:26;4.28;;;2.88;;
6392;SDS011;3229;42.674;23.282;2022-07-05T06:12:57;4.38;;;2.72;;
6392;SDS011;3229;42.674;23.282;2022-07-05T06:15:25;5.88;;;2.90;;
6392;SDS011;3229;42.674;23.282;2022-07-05T06:17:52;6.57;;;3.00;;
6392;SDS011;3229;42.674;23.282;2022-07-05T06:20:20;5.03;;;3.50;;
6392;SDS011;3229;42.674;23.282;2022-07-05T06:22:49;4.90;;;2.55;;
6392;SDS011;3229;42.674;23.282;2022-07-05T06:25:17;4.47;;;3.13;;
6392;SDS011;3229;42.674;23.282;2022-07-05T06:27:44;4.40;;;2.70;;
6392;SDS011;3229;42.674;23.282;2022-07-05T06:30:14;3.00;;;2.80;;
6392;SDS011;3229;42.674;23.282;2022-07-05T06:32:42;4.57;;;3.13;;
6392;SDS011;3229;42.674;23.282;2022-07-05T06:35:10;7.32;;;3.30;;
6392;SDS011;3229;42.674;23.282;2022-07-05T06:37:41;4.53;;;3.13;;
6392;SDS011;3229;42.674;23.282;2022-07-05T06:40:09;6.65;;;3.03;;
6392;SDS011;3229;42.674;23.282;2022-07-05T06:42:38;3.30;;;2.70;;
6392;SDS011;3229;42.674;23.282;2022-07-05T06:45:05;5.68;;;3.00;;
6392;SDS011;3229;42.674;23.282;2022-07-05T06:47:34;3.53;;;3.22;;
6392;SDS011;3229;42.674;23.282;2022-07-05T06:50:01;9.70;;;3.20;;
6392;SDS011;3229;42.674;23.282;2022-07-05T06:52:29;4.05;;;3.70;;
6392;SDS011;3229;42.674;23.282;2022-07-05T06:54:56;4.05;;;2.92;;
6392;SDS011;3229;42.674;23.282;2022-07-05T06:57:23;3.88;;;3.00;;
6392;SDS011;3229;42.674;23.282;2022-07-05T06:59:50;5.50;;;2.70;;
6392;SDS011;3229;42.674;23.282;2022-07-05T07:02:17;5.45;;;2.85;;
6392;SDS011;3229;42.674;23.282;2022-07-05T07:04:46;5.82;;;2.53;;
6392;SDS011;3229;42.674;23.282;2022-07-05T07:07:13;6.50;;;3.50;;
6392;SDS011;3229;42.674;23.282;2022-07-05T07:09:58;3.38;;;2.80;;
6392;SDS011;3229;42.674;23.282;2022-07-05T07:12:25;3.83;;;2.97;;
6392;SDS011;3229;42.674;23.282;2022-07-05T07:14:52;3.03;;;2.63;;
6392;SDS011;3229;42.674;23.282;2022-07-05T07:17:19;4.20;;;2.90;;
6392;SDS011;3229;42.674;23.282;2022-07-05T07:19:47;6.78;;;3.35;;
6392;SDS011;3229;42.674;23.282;2022-07-05T07:22:14;5.72;;;3.20;;
6392;SDS011;3229;42.674;23.282;2022-07-05T07:24:41;7.82;;;3.00;;
6392;SDS011;3229;42.674;23.282;2022-07-05T07:27:08;4.57;;;3.08;;
6392;SDS011;3229;42.674;23.282;2022-07-05T07:29:35;6.07;;;3.20;;
6392;SDS011;3229;42.674;23.282;2022-07-05T07:32:05;4.72;;;3.17;;
6392;SDS011;3229;42.674;23.282;2022-07-05T07:34:32;3.42;;;3.13;;
6392;SDS011;3229;42.674;23.282;2022-07-05T07:37:01;3.17;;;2.88;;
6392;SDS011;3229;42.674;23.282;2022-07-05T07:39:28;2.90;;;2.70;;
6392;SDS011;3229;42.674;23.282;2022-07-05T07:41:57;3.38;;;3.00;;
6392;SDS011;3229;42.674;23.282;2022-07-05T07:44:24;4.63;;;3.42;;
6392;SDS011;3229;42.674;23.282;2022-07-05T07:46:51;3.05;;;2.70;;
6392;SDS011;3229;42.674;23.282;2022-07-05T07:49:17;2.70;;;2.50;;
6392;SDS011;3229;42.674;23.282;2022-07-05T07:51:44;4.72;;;2.67;;
6392;SDS011;3229;42.674;23.282;2022-07-05T07:54:13;5.47;;;3.25;;
6392;SDS011;3229;42.674;23.282;2022-07-05T07:56:40;3.30;;;2.80;;
6392;SDS011;3229;42.674;23.282;2022-07-05T07:59:06;4.05;;;3.42;;
6392;SDS011;3229;42.674;23.282;2022-07-05T08:01:33;4.03;;;2.63;;
6392;SDS011;3229;42.674;23.282;2022-07-05T08:04:00;4.68;;;3.17;;
6392;SDS011;3229;42.674;23.282;2022-07-05T08:06:27;4.70;;;3.40;;
6392;SDS011;3229;42.674;23.282;2022-07-05T08:08:55;4.53;;;3.33;;
6392;SDS011;3229;42.674;23.282;2022-07-05T08:11:23;4.15;;;3.08;;
6392;SDS011;3229;42.674;23.282;2022-07-05T08:13:50;3.75;;;3.33;;
6392;SDS011;3229;42.674;23.282;2022-07-05T08:16:17;3.50;;;3.20;;
6392;SDS011;3229;42.674;23.282;2022-07-05T08:18:43;3.40;;;2.95;;
6392;SDS011;3229;42.674;23.282;2022-07-05T08:21:28;5.07;;;3.00;;
6392;SDS011;3229;42.674;23.282;2022-07-05T08:24:00;3.45;;;3.15;;
6392;SDS011;3229;42.674;23.282;2022-07-05T08:26:30;3.10;;;2.80;;
6392;SDS011;3229;42.674;23.282;2022-07-05T08:28:57;4.93;;;3.53;;
6392;SDS011;3229;42.674;23.282;2022-07-05T08:31:25;4.93;;;3.15;;
6392;SDS011;3229;42.674;23.282;2022-07-05T08:33:52;4.78;;;3.25;;
6392;SDS011;3229;42.674;23.282;2022-07-05T08:36:19;6.85;;;3.30;;
6392;SDS011;3229;42.674;23.282;2022-07-05T08:38:46;3.88;;;3.47;;
6392;SDS011;3229;42.674;23.282;2022-07-05T08:41:13;3.50;;;3.25;;
6392;SDS011;3229;42.674;23.282;2022-07-05T08:43:46;4.03;;;3.25;;
6392;SDS011;3229;42.674;23.282;2022-07-05T08:46:14;3.53;;;3.22;;
6392;SDS011;3229;42.674;23.282;2022-07-05T08:48:43;3.72;;;3.20;;
6392;SDS011;3229;42.674;23.282;2022-07-05T08:51:13;5.03;;;3.40;;
6392;SDS011;3229;42.674;23.282;2022-07-05T08:53:42;3.83;;;3.45;;
6392;SDS011;3229;42.674;23.282;2022-07-05T08:56:10;4.85;;;2.92;;
6392;SDS011;3229;42.674;23.282;2022-07-05T08:58:38;4.38;;;2.88;;
6392;SDS011;3229;42.674;23.282;2022-07-05T09:01:08;4.40;;;3.50;;
6392;SDS011;3229;42.674;23.282;2022-07-05T09:03:37;3.97;;;2.78;;
6392;SDS011;3229;42.674;23.282;2022-07-05T09:06:06;10.48;;;3.85;;
6392;SDS011;3229;42.674;23.282;2022-07-05T09:08:36;3.78;;;3.42;;
6392;SDS011;3229;42.674;23.282;2022-07-05T09:11:05;3.63;;;3.33;;
6392;SDS011;3229;42.674;23.282;2022-07-05T09:13:34;6.53;;;3.72;;
6392;SDS011;3229;42.674;23.282;2022-07-05T09:16:02;3.83;;;3.20;;
6392;SDS011;3229;42.674;23.282;2022-07-05T09:18:48;3.80;;;3.50;;
6392;SDS011;3229;42.674;23.282;2022-07-05T09:21:17;4.00;;;3.60;;
6392;SDS011;3229;42.674;23.282;2022-07-05T09:23:52;6.00;;;4.03;;
6392;SDS011;3229;42.674;23.282;2022-07-05T09:26:25;4.95;;;3.47;;
6392;SDS011;3229;42.674;23.282;2022-07-05T09:29:00;4.72;;;3.42;;
6392;SDS011;3229;42.674;23.282;2022-07-05T09:31:30;3.70;;;3.40;;
6392;SDS011;3229;42.674;23.282;2022-07-05T09:34:08;6.22;;;3.65;;
6392;SDS011;3229;42.674;23.282;2022-07-05T09:36:46;3.63;;;3.33;;
6392;SDS011;3229;42.674;23.282;2022-07-05T09:39:14;4.28;;;3.80;;
6392;SDS011;3229;42.674;23.282;2022-07-05T09:41:41;3.65;;;3.30;;
6392;SDS011;3229;42.674;23.282;2022-07-05T09:44:08;4.18;;;3.38;;
6392;SDS011;3229;42.674;23.282;2022-07-05T09:46:35;4.10;;;3.70;;
6392;SDS011;3229;42.674;23.282;2022-07-05T09:49:01;5.72;;;4.20;;
6392;SDS011;3229;42.674;23.282;2022-07-05T09:51:30;5.10;;;3.38;;
6392;SDS011;3229;42.674;23.282;2022-07-05T09:54:13;4.35;;;3.40;;
6392;SDS011;3229;42.674;23.282;2022-07-05T09:56:43;5.65;;;3.85;;
6392;SDS011;3229;42.674;23.282;2022-07-05T09:59:12;5.68;;;3.55;;
6392;SDS011;3229;42.674;23.282;2022-07-05T10:01:43;4.93;;;3.47;;
6392;SDS011;3229;42.674;23.282;2022-07-05T10:04:10;4.80;;;3.30;;
6392;SDS011;3229;42.674;23.282;2022-07-05T10:06:39;3.60;;;3.30;;
6392;SDS011;3229;42.674;23.282;2022-07-05T10:09:07;4.07;;;3.33;;
6392;SDS011;3229;42.674;23.282;2022-07-05T10:11:35;9.95;;;3.97;;
6392;SDS011;3229;42.674;23.282;2022-07-05T10:14:08;7.03;;;4.38;;
6392;SDS011;3229;42.674;23.282;2022-07-05T10:16:38;4.07;;;3.78;;
6392;SDS011;3229;42.674;23.282;2022-07-05T10:19:08;3.95;;;3.53;;
6392;SDS011;3229;42.674;23.282;2022-07-05T10:21:43;5.40;;;4.20;;
6392;SDS011;3229;42.674;23.282;2022-07-05T10:24:10;5.50;;;4.00;;
6392;SDS011;3229;42.674;23.282;2022-07-05T10:26:38;6.50;;;3.53;;
6392;SDS011;3229;42.674;23.282;2022-07-05T10:29:06;3.80;;;3.47;;
6392;SDS011;3229;42.674;23.282;2022-07-05T10:31:35;8.30;;;4.60;;
6392;SDS011;3229;42.674;23.282;2022-07-05T10:34:04;5.20;;;4.00;;
6392;SDS011;3229;42.674;23.282;2022-07-05T10:36:33;6.90;;;4.60;;
6392;SDS011;3229;42.674;23.282;2022-07-05T10:39:04;4.45;;;4.05;;
6392;SDS011;3229;42.674;23.282;2022-07-05T10:41:32;5.32;;;4.70;;
6392;SDS011;3229;42.674;23.282;2022-07-05T10:43:59;5.78;;;4.50;;
6392;SDS011;3229;42.674;23.282;2022-07-05T10:46:33;4.47;;;4.03;;
6392;SDS011;3229;42.674;23.282;2022-07-05T10:51:46;7.10;;;3.88;;
6392;SDS011;3229;42.674;23.282;2022-07-05T10:54:15;4.78;;;4.35;;
6392;SDS011;3229;42.674;23.282;2022-07-05T10:56:43;7.35;;;4.50;;
6392;SDS011;3229;42.674;23.282;2022-07-05T11:00:06;5.05;;;4.38;;
6392;SDS011;3229;42.674;23.282;2022-07-05T11:02:35;6.45;;;4.05;;
6392;SDS011;3229;42.674;23.282;2022-07-05T11:05:02;4.88;;;4.30;;
6392;SDS011;3229;42.674;23.282;2022-07-05T11:10:25;7.47;;;4.68;;
6392;SDS011;3229;42.674;23.282;2022-07-05T11:12:52;7.57;;;4.68;;
6392;SDS011;3229;42.674;23.282;2022-07-05T11:15:19;4.30;;;3.90;;
6392;SDS011;3229;42.674;23.282;2022-07-05T11:17:46;4.18;;;3.83;;
6392;SDS011;3229;42.674;23.282;2022-07-05T11:20:13;8.15;;;4.47;;
6392;SDS011;3229;42.674;23.282;2022-07-05T11:25:32;6.22;;;4.10;;
6392;SDS011;3229;42.674;23.282;2022-07-05T11:28:16;6.60;;;3.97;;
6392;SDS011;3229;42.674;23.282;2022-07-05T11:30:55;9.70;;;4.53;;
6392;SDS011;3229;42.674;23.282;2022-07-05T11:33:25;5.60;;;4.57;;
6392;SDS011;3229;42.674;23.282;2022-07-05T11:35:56;8.13;;;4.43;;
6392;SDS011;3229;42.674;23.282;2022-07-05T11:38:23;5.53;;;4.38;;
6392;SDS011;3229;42.674;23.282;2022-07-05T11:40:52;6.55;;;4.20;;
6392;SDS011;3229;42.674;23.282;2022-07-05T11:43:26;7.50;;;4.32;;
6392;SDS011;3229;42.674;23.282;2022-07-05T11:45:57;5.63;;;4.38;;
6392;SDS011;3229;42.674;23.282;2022-07-05T11:48:25;5.90;;;4.80;;
6392;SDS011;3229;42.674;23.282;2022-07-05T11:50:53;4.97;;;4.55;;
6392;SDS011;3229;42.674;23.282;2022-07-05T11:53:27;6.97;;;3.83;;
6392;SDS011;3229;42.674;23.282;2022-07-05T11:55:56;5.05;;;4.07;;
6392;SDS011;3229;42.674;23.282;2022-07-05T11:58:29;4.32;;;4.03;;
6392;SDS011;3229;42.674;23.282;2022-07-05T12:00:57;6.03;;;4.25;;
6392;SDS011;3229;42.674;23.282;2022-07-05T12:03:25;4.57;;;4.18;;
6392;SDS011;3229;42.674;23.282;2022-07-05T12:05:52;5.55;;;4.20;;
6392;SDS011;3229;42.674;23.282;2022-07-05T12:08:19;5.80;;;4.50;;
6392;SDS011;3229;42.674;23.282;2022-07-05T12:10:46;5.80;;;4.18;;
6392;SDS011;3229;42.674;23.282;2022-07-05T12:13:32;4.95;;;4.50;;
6392;SDS011;3229;42.674;23.282;2022-07-05T12:16:09;4.50;;;4.10;;
6392;SDS011;3229;42.674;23.282;2022-07-05T12:18:45;5.30;;;4.53;;
6392;SDS011;3229;42.674;23.282;2022-07-05T12:21:13;5.55;;;4.68;;
6392;SDS011;3229;42.674;23.282;2022-07-05T12:23:40;4.88;;;4.15;;
6392;SDS011;3229;42.674;23.282;2022-07-05T12:26:08;6.00;;;4.30;;
6392;SDS011;3229;42.674;23.282;2022-07-05T12:28:36;6.97;;;4.32;;
6392;SDS011;3229;42.674;23.282;2022-07-05T12:33:47;4.78;;;4.38;;
6392;SDS011;3229;42.674;23.282;2022-07-05T12:36:16;5.53;;;5.00;;
6392;SDS011;3229;42.674;23.282;2022-07-05T12:38:44;5.63;;;4.93;;
6392;SDS011;3229;42.674;23.282;2022-07-05T12:41:11;8.18;;;4.78;;
6392;SDS011;3229;42.674;23.282;2022-07-05T12:43:52;5.68;;;4.82;;
6392;SDS011;3229;42.674;23.282;2022-07-05T12:46:19;5.15;;;4.65;;
6392;SDS011;3229;42.674;23.282;2022-07-05T12:48:51;5.78;;;4.85;;
6392;SDS011;3229;42.674;23.282;2022-07-05T12:51:31;4.75;;;4.35;;
6392;SDS011;3229;42.674;23.282;2022-07-05T12:53:59;5.65;;;4.90;;
6392;SDS011;3229;42.674;23.282;2022-07-05T12:56:47;5.75;;;4.68;;
6392;SDS011;3229;42.674;23.282;2022-07-05T12:59:33;5.28;;;4.78;;
6392;SDS011;3229;42.674;23.282;2022-07-05T13:02:00;4.80;;;4.38;;
6392;SDS011;3229;42.674;23.282;2022-07-05T13:04:27;4.75;;;4.30;;
6392;SDS011;3229;42.674;23.282;2022-07-05T13:06:55;4.88;;;4.38;;
6392;SDS011;3229;42.674;23.282;2022-07-05T13:09:30;5.22;;;4.78;;
6392;SDS011;3229;42.674;23.282;2022-07-05T13:12:05;5.30;;;4.82;;
6392;SDS011;3229;42.674;23.282;2022-07-05T13:14:35;7.65;;;4.43;;
6392;SDS011;3229;42.674;23.282;2022-07-05T13:17:03;8.35;;;4.32;;
6392;SDS011;3229;42.674;23.282;2022-07-05T13:19:30;5.60;;;4.43;;
6392;SDS011;3229;42.674;23.282;2022-07-05T13:21:57;4.93;;;4.53;;
6392;SDS011;3229;42.674;23.282;2022-07-05T13:24:24;6.70;;;5.20;;
6392;SDS011;3229;42.674;23.282;2022-07-05T13:26:52;6.40;;;5.00;;
6392;SDS011;3229;42.674;23.282;2022-07-05T13:29:22;5.13;;;4.65;;
6392;SDS011;3229;42.674;23.282;2022-07-05T13:31:50;6.95;;;4.80;;
6392;SDS011;3229;42.674;23.282;2022-07-05T13:34:17;7.50;;;4.72;;
6392;SDS011;3229;42.674;23.282;2022-07-05T13:36:44;4.80;;;4.38;;
6392;SDS011;3229;42.674;23.282;2022-07-05T13:39:11;5.90;;;5.40;;
6392;SDS011;3229;42.674;23.282;2022-07-05T13:41:38;5.43;;;4.72;;
6392;SDS011;3229;42.674;23.282;2022-07-05T13:44:05;5.20;;;4.47;;
6392;SDS011;3229;42.674;23.282;2022-07-05T13:46:32;5.00;;;4.60;;
6392;SDS011;3229;42.674;23.282;2022-07-05T13:49:00;5.03;;;4.45;;
6392;SDS011;3229;42.674;23.282;2022-07-05T13:51:27;6.05;;;4.43;;
6392;SDS011;3229;42.674;23.282;2022-07-05T13:53:53;4.72;;;4.30;;
6392;SDS011;3229;42.674;23.282;2022-07-05T13:56:20;5.00;;;4.60;;
6392;SDS011;3229;42.674;23.282;2022-07-05T13:58:47;5.82;;;5.32;;
6392;SDS011;3229;42.674;23.282;2022-07-05T14:01:14;9.80;;;5.55;;
6392;SDS011;3229;42.674;23.282;2022-07-05T14:03:42;5.32;;;4.90;;
6392;SDS011;3229;42.674;23.282;2022-07-05T14:06:11;6.80;;;4.93;;
6392;SDS011;3229;42.674;23.282;2022-07-05T14:08:40;5.63;;;4.72;;
6392;SDS011;3229;42.674;23.282;2022-07-05T14:11:10;5.18;;;4.65;;
6392;SDS011;3229;42.674;23.282;2022-07-05T14:13:39;6.15;;;4.93;;
6392;SDS011;3229;42.674;23.282;2022-07-05T14:16:18;5.93;;;5.43;;
6392;SDS011;3229;42.674;23.282;2022-07-05T14:18:46;5.07;;;4.57;;
6392;SDS011;3229;42.674;23.282;2022-07-05T14:21:16;6.15;;;4.82;;
6392;SDS011;3229;42.674;23.282;2022-07-05T14:23:43;5.32;;;4.93;;
6392;SDS011;3229;42.674;23.282;2022-07-05T14:26:11;5.88;;;5.20;;
6392;SDS011;3229;42.674;23.282;2022-07-05T14:28:38;4.95;;;4.45;;
6392;SDS011;3229;42.674;23.282;2022-07-05T14:31:05;5.35;;;4.85;;
6392;SDS011;3229;42.674;23.282;2022-07-05T14:33:32;6.72;;;4.78;;
6392;SDS011;3229;42.674;23.282;2022-07-05T14:35:59;5.40;;;4.43;;
6392;SDS011;3229;42.674;23.282;2022-07-05T14:38:27;6.00;;;4.53;;
6392;SDS011;3229;42.674;23.282;2022-07-05T14:40:54;4.63;;;4.22;;
6392;SDS011;3229;42.674;23.282;2022-07-05T14:43:20;5.88;;;4.88;;
6392;SDS011;3229;42.674;23.282;2022-07-05T14:45:47;5.32;;;4.78;;
6392;SDS011;3229;42.674;23.282;2022-07-05T14:48:16;6.38;;;4.85;;
6392;SDS011;3229;42.674;23.282;2022-07-05T14:50:43;7.85;;;5.03;;
6392;SDS011;3229;42.674;23.282;2022-07-05T14:53:12;5.40;;;4.90;;
6392;SDS011;3229;42.674;23.282;2022-07-05T14:55:41;4.75;;;4.43;;
6392;SDS011;3229;42.674;23.282;2022-07-05T14:58:09;7.63;;;5.15;;
6392;SDS011;3229;42.674;23.282;2022-07-05T15:00:36;5.65;;;4.40;;
6392;SDS011;3229;42.674;23.282;2022-07-05T15:03:03;5.72;;;4.85;;
6392;SDS011;3229;42.674;23.282;2022-07-05T15:05:31;4.70;;;4.38;;
6392;SDS011;3229;42.674;23.282;2022-07-05T15:07:58;7.18;;;4.93;;
6392;SDS011;3229;42.674;23.282;2022-07-05T15:10:25;6.70;;;4.95;;
6392;SDS011;3229;42.674;23.282;2022-07-05T15:12:53;5.28;;;4.80;;
6392;SDS011;3229;42.674;23.282;2022-07-05T15:15:20;5.07;;;4.57;;
6392;SDS011;3229;42.674;23.282;2022-07-05T15:17:47;7.13;;;5.18;;
6392;SDS011;3229;42.674;23.282;2022-07-05T15:20:13;5.60;;;5.10;;